sensor_id;sensor_type;location;lat;lon;timestamp;temperature;humidity
11055;DHT22;5580;50.106;8.702;2022-10-17T00:01:50;17.20;99.90
11055;DHT22;5580;50.106;8.702;2022-10-17T00:04:15;17.20;99.90
11055;DHT22;5580;50.106;8.702;2022-10-17T00:06:41;17.20;99.90
11055;DHT22;5580;50.106;8.702;2022-10-17T00:09:07;17.20;99.90
11055;DHT22;5580;50.106;8.702;2022-10-17T00:11:33;17.20;99.90
11055;DHT22;5580;50.106;8.702;2022-10-17T00:13:59;17.20;99.90
11055;DHT22;5580;50.106;8.702;2022-10-17T00:16:31;17.10;99.90
11055;DHT22;5580;50.106;8.702;2022-10-17T00:18:58;17.10;99.90
11055;DHT22;5580;50.106;8.702;2022-10-17T00:21:24;17.10;99.90
11055;DHT22;5580;50.106;8.702;2022-10-17T00:23:50;17.10;99.90
11055;DHT22;5580;50.106;8.702;2022-10-17T00:26:16;17.10;99.90
11055;DHT22;5580;50.106;8.702;2022-10-17T00:28:44;17.10;99.90
11055;DHT22;5580;50.106;8.702;2022-10-17T00:31:10;17.00;99.90
11055;DHT22;5580;50.106;8.702;2022-10-17T00:33:36;17.00;99.90
11055;DHT22;5580;50.106;8.702;2022-10-17T00:38:31;17.10;99.90
11055;DHT22;5580;50.106;8.702;2022-10-17T00:40:57;17.10;99.90
11055;DHT22;5580;50.106;8.702;2022-10-17T00:43:23;17.10;99.90
11055;DHT22;5580;50.106;8.702;2022-10-17T00:45:48;17.10;99.90
11055;DHT22;5580;50.106;8.702;2022-10-17T00:48:14;17.10;99.90
11055;DHT22;5580;50.106;8.702;2022-10-17T00:50:43;17.10;99.90
11055;DHT22;5580;50.106;8.702;2022-10-17T00:53:10;17.10;99.90
11055;DHT22;5580;50.106;8.702;2022-10-17T00:55:43;17.10;99.90
11055;DHT22;5580;50.106;8.702;2022-10-17T00:58:10;17.00;99.90
11055;DHT22;5580;50.106;8.702;2022-10-17T01:00:36;17.00;99.90
11055;DHT22;5580;50.106;8.702;2022-10-17T01:03:02;17.00;99.90
11055;DHT22;5580;50.106;8.702;2022-10-17T01:05:28;17.00;99.90
11055;DHT22;5580;50.106;8.702;2022-10-17T01:07:54;16.90;99.90
11055;DHT22;5580;50.106;8.702;2022-10-17T01:10:21;16.90;99.90
11055;DHT22;5580;50.106;8.702;2022-10-17T01:13:10;16.90;99.90
11055;DHT22;5580;50.106;8.702;2022-10-17T01:29:44;16.80;99.90
11055;DHT22;5580;50.106;8.702;2022-10-17T01:32:32;16.70;99.90
11055;DHT22;5580;50.106;8.702;2022-10-17T01:35:25;16.70;99.90
11055;DHT22;5580;50.106;8.702;2022-10-17T01:37:54;16.70;99.90
11055;DHT22;5580;50.106;8.702;2022-10-17T01:40:30;16.70;99.90
11055;DHT22;5580;50.106;8.702;2022-10-17T01:43:06;16.70;99.90
11055;DHT22;5580;50.106;8.702;2022-10-17T01:45:40;16.70;99.90
11055;DHT22;5580;50.106;8.702;2022-10-17T01:48:12;16.60;99.90
11055;DHT22;5580;50.106;8.702;2022-10-17T01:50:45;16.60;99.90
11055;DHT22;5580;50.106;8.702;2022-10-17T01:53:26;16.60;99.90
11055;DHT22;5580;50.106;8.702;2022-10-17T01:55:56;16.50;99.90
11055;DHT22;5580;50.106;8.702;2022-10-17T01:58:48;16.50;99.90
11055;DHT22;5580;50.106;8.702;2022-10-17T02:01:16;16.50;99.90
11055;DHT22;5580;50.106;8.702;2022-10-17T02:03:43;16.40;99.90
11055;DHT22;5580;50.106;8.702;2022-10-17T02:06:09;16.40;99.90
11055;DHT22;5580;50.106;8.702;2022-10-17T02:08:43;16.40;99.90
11055;DHT22;5580;50.106;8.702;2022-10-17T02:11:27;16.40;99.90
11055;DHT22;5580;50.106;8.702;2022-10-17T02:15:13;16.40;99.90
11055;DHT22;5580;50.106;8.702;2022-10-17T02:17:22;16.30;99.90
11055;DHT22;5580;50.106;8.702;2022-10-17T02:20:16;16.30;99.90
11055;DHT22;5580;50.106;8.702;2022-10-17T02:22:57;16.30;99.90
11055;DHT22;5580;50.106;8.702;2022-10-17T02:31:23;16.30;99.90
11055;DHT22;5580;50.106;8.702;2022-10-17T02:33:55;16.30;99.90
11055;DHT22;5580;50.106;8.702;2022-10-17T02:36:27;16.30;99.90
11055;DHT22;5580;50.106;8.702;2022-10-17T02:38:54;16.30;99.90
11055;DHT22;5580;50.106;8.702;2022-10-17T02:41:22;16.30;99.90
11055;DHT22;5580;50.106;8.702;2022-10-17T02:43:49;16.20;99.90
11055;DHT22;5580;50.106;8.702;2022-10-17T02:46:17;16.30;99.90
11055;DHT22;5580;50.106;8.702;2022-10-17T02:48:51;16.20;99.90
11055;DHT22;5580;50.106;8.702;2022-10-17T02:54:30;16.20;99.90
11055;DHT22;5580;50.106;8.702;2022-10-17T02:57:04;16.20;99.90
11055;DHT22;5580;50.106;8.702;2022-10-17T02:59:33;16.10;99.90
11055;DHT22;5580;50.106;8.702;2022-10-17T03:02:05;16.10;99.90
11055;DHT22;5580;50.106;8.702;2022-10-17T03:04:31;16.20;99.90
11055;DHT22;5580;50.106;8.702;2022-10-17T03:06:57;16.20;99.90
11055;DHT22;5580;50.106;8.702;2022-10-17T03:09:22;16.10;99.90
11055;DHT22;5580;50.106;8.702;2022-10-17T03:11:48;16.10;99.90
11055;DHT22;5580;50.106;8.702;2022-10-17T03:14:13;16.10;99.90
11055;DHT22;5580;50.106;8.702;2022-10-17T03:16:39;16.10;99.90
11055;DHT22;5580;50.106;8.702;2022-10-17T03:19:05;16.10;99.90
11055;DHT22;5580;50.106;8.702;2022-10-17T03:21:30;16.10;99.90
11055;DHT22;5580;50.106;8.702;2022-10-17T03:23:56;16.10;99.90
11055;DHT22;5580;50.106;8.702;2022-10-17T03:26:21;16.10;99.90
11055;DHT22;5580;50.106;8.702;2022-10-17T03:28:47;16.10;99.90
11055;DHT22;5580;50.106;8.702;2022-10-17T03:31:15;16.10;99.90
11055;DHT22;5580;50.106;8.702;2022-10-17T03:33:41;16.10;99.90
11055;DHT22;5580;50.106;8.702;2022-10-17T03:36:09;16.10;99.90
11055;DHT22;5580;50.106;8.702;2022-10-17T03:38:35;16.10;99.90
11055;DHT22;5580;50.106;8.702;2022-10-17T03:41:02;16.10;99.90
11055;DHT22;5580;50.106;8.702;2022-10-17T03:43:28;16.00;99.90
11055;DHT22;5580;50.106;8.702;2022-10-17T03:45:53;16.00;99.90
11055;DHT22;5580;50.106;8.702;2022-10-17T03:48:19;16.00;99.90
11055;DHT22;5580;50.106;8.702;2022-10-17T03:50:44;16.00;99.90
11055;DHT22;5580;50.106;8.702;2022-10-17T03:53:10;16.00;99.90
11055;DHT22;5580;50.106;8.702;2022-10-17T03:55:36;16.00;99.90
11055;DHT22;5580;50.106;8.702;2022-10-17T03:58:02;16.00;99.90
11055;DHT22;5580;50.106;8.702;2022-10-17T04:00:27;16.00;99.90
11055;DHT22;5580;50.106;8.702;2022-10-17T04:02:53;15.90;99.90
11055;DHT22;5580;50.106;8.702;2022-10-17T04:05:18;15.90;99.90
11055;DHT22;5580;50.106;8.702;2022-10-17T04:07:44;15.90;99.90
11055;DHT22;5580;50.106;8.702;2022-10-17T04:10:10;15.90;99.90
11055;DHT22;5580;50.106;8.702;2022-10-17T04:12:35;15.90;99.90
11055;DHT22;5580;50.106;8.702;2022-10-17T04:15:01;15.90;99.90
11055;DHT22;5580;50.106;8.702;2022-10-17T04:17:29;15.90;99.90
11055;DHT22;5580;50.106;8.702;2022-10-17T04:19:54;15.90;99.90
11055;DHT22;5580;50.106;8.702;2022-10-17T04:22:20;15.90;99.90
11055;DHT22;5580;50.106;8.702;2022-10-17T04:24:46;15.90;99.90
11055;DHT22;5580;50.106;8.702;2022-10-17T04:27:11;15.90;99.90
11055;DHT22;5580;50.106;8.702;2022-10-17T04:29:37;15.90;99.90
11055;DHT22;5580;50.106;8.702;2022-10-17T04:32:03;15.90;99.90
11055;DHT22;5580;50.106;8.702;2022-10-17T04:34:28;15.80;99.90
11055;DHT22;5580;50.106;8.702;2022-10-17T04:36:54;15.90;99.90
11055;DHT22;5580;50.106;8.702;2022-10-17T04:39:19;15.80;99.90
11055;DHT22;5580;50.106;8.702;2022-10-17T04:41:45;15.80;99.90
11055;DHT22;5580;50.106;8.702;2022-10-17T04:44:10;15.80;99.90
11055;DHT22;5580;50.106;8.702;2022-10-17T04:46:36;15.80;99.90
11055;DHT22;5580;50.106;8.702;2022-10-17T04:49:02;15.80;99.90
11055;DHT22;5580;50.106;8.702;2022-10-17T04:51:27;15.80;99.90
11055;DHT22;5580;50.106;8.702;2022-10-17T04:53:53;15.80;99.90
11055;DHT22;5580;50.106;8.702;2022-10-17T04:56:21;15.80;99.90
11055;DHT22;5580;50.106;8.702;2022-10-17T04:58:47;15.80;99.90
11055;DHT22;5580;50.106;8.702;2022-10-17T05:01:16;15.70;99.90
11055;DHT22;5580;50.106;8.702;2022-10-17T05:03:42;15.70;99.90
11055;DHT22;5580;50.106;8.702;2022-10-17T05:06:10;15.70;99.90
11055;DHT22;5580;50.106;8.702;2022-10-17T05:08:36;15.70;99.90
11055;DHT22;5580;50.106;8.702;2022-10-17T05:11:02;15.70;99.90
11055;DHT22;5580;50.106;8.702;2022-10-17T05:13:28;15.70;99.90
11055;DHT22;5580;50.106;8.702;2022-10-17T05:15:58;15.70;99.90
11055;DHT22;5580;50.106;8.702;2022-10-17T05:18:24;15.70;99.90
11055;DHT22;5580;50.106;8.702;2022-10-17T05:20:49;15.70;99.90
11055;DHT22;5580;50.106;8.702;2022-10-17T05:23:15;15.70;99.90
11055;DHT22;5580;50.106;8.702;2022-10-17T05:25:41;15.70;99.90
11055;DHT22;5580;50.106;8.702;2022-10-17T05:28:06;15.70;99.90
11055;DHT22;5580;50.106;8.702;2022-10-17T05:30:33;15.70;99.90
11055;DHT22;5580;50.106;8.702;2022-10-17T05:32:58;15.60;99.90
11055;DHT22;5580;50.106;8.702;2022-10-17T05:35:24;15.50;99.90
11055;DHT22;5580;50.106;8.702;2022-10-17T05:37:50;15.30;99.90
11055;DHT22;5580;50.106;8.702;2022-10-17T05:40:15;15.30;99.90
11055;DHT22;5580;50.106;8.702;2022-10-17T05:42:45;15.30;99.90
11055;DHT22;5580;50.106;8.702;2022-10-17T05:45:11;15.20;99.90
11055;DHT22;5580;50.106;8.702;2022-10-17T05:47:36;15.30;99.90
11055;DHT22;5580;50.106;8.702;2022-10-17T05:50:02;15.30;99.90
11055;DHT22;5580;50.106;8.702;2022-10-17T05:52:27;15.40;99.90
11055;DHT22;5580;50.106;8.702;2022-10-17T05:54:53;15.40;99.90
11055;DHT22;5580;50.106;8.702;2022-10-17T05:57:19;15.40;99.90
11055;DHT22;5580;50.106;8.702;2022-10-17T05:59:44;15.40;99.90
11055;DHT22;5580;50.106;8.702;2022-10-17T06:02:12;15.40;99.90
11055;DHT22;5580;50.106;8.702;2022-10-17T06:04:37;15.40;99.90
11055;DHT22;5580;50.106;8.702;2022-10-17T06:07:05;15.40;99.90
11055;DHT22;5580;50.106;8.702;2022-10-17T06:09:30;15.40;99.90
11055;DHT22;5580;50.106;8.702;2022-10-17T06:11:56;15.40;99.90
11055;DHT22;5580;50.106;8.702;2022-10-17T06:14:21;15.40;99.90
11055;DHT22;5580;50.106;8.702;2022-10-17T06:16:47;15.40;99.90
11055;DHT22;5580;50.106;8.702;2022-10-17T06:19:12;15.40;99.90
11055;DHT22;5580;50.106;8.702;2022-10-17T06:21:38;15.40;99.90
11055;DHT22;5580;50.106;8.702;2022-10-17T06:24:04;15.40;99.90
11055;DHT22;5580;50.106;8.702;2022-10-17T06:26:30;15.40;99.90
11055;DHT22;5580;50.106;8.702;2022-10-17T06:28:55;15.40;99.90
11055;DHT22;5580;50.106;8.702;2022-10-17T06:31:21;15.40;99.90
11055;DHT22;5580;50.106;8.702;2022-10-17T06:33:47;15.40;99.90
11055;DHT22;5580;50.106;8.702;2022-10-17T06:36:13;15.40;99.90
11055;DHT22;5580;50.106;8.702;2022-10-17T06:38:39;15.50;99.90
11055;DHT22;5580;50.106;8.702;2022-10-17T06:41:10;15.50;99.90
11055;DHT22;5580;50.106;8.702;2022-10-17T06:43:38;15.50;99.90
11055;DHT22;5580;50.106;8.702;2022-10-17T06:46:05;15.50;99.90
11055;DHT22;5580;50.106;8.702;2022-10-17T06:48:31;15.50;99.90
11055;DHT22;5580;50.106;8.702;2022-10-17T06:51:02;15.50;99.90
11055;DHT22;5580;50.106;8.702;2022-10-17T06:53:29;15.50;99.90
11055;DHT22;5580;50.106;8.702;2022-10-17T06:55:55;15.50;99.90
11055;DHT22;5580;50.106;8.702;2022-10-17T06:58:26;15.40;99.90
11055;DHT22;5580;50.106;8.702;2022-10-17T07:01:01;15.40;99.90
11055;DHT22;5580;50.106;8.702;2022-10-17T07:03:27;15.40;99.90
11055;DHT22;5580;50.106;8.702;2022-10-17T07:05:54;15.40;99.90
11055;DHT22;5580;50.106;8.702;2022-10-17T07:08:20;15.50;99.90
11055;DHT22;5580;50.106;8.702;2022-10-17T07:10:46;15.50;99.90
11055;DHT22;5580;50.106;8.702;2022-10-17T07:13:12;15.50;99.90
11055;DHT22;5580;50.106;8.702;2022-10-17T07:15:38;15.50;99.90
11055;DHT22;5580;50.106;8.702;2022-10-17T07:18:04;15.50;99.90
11055;DHT22;5580;50.106;8.702;2022-10-17T07:20:30;15.50;99.90
11055;DHT22;5580;50.106;8.702;2022-10-17T07:22:56;15.50;99.90
11055;DHT22;5580;50.106;8.702;2022-10-17T07:25:22;15.50;99.90
11055;DHT22;5580;50.106;8.702;2022-10-17T07:27:48;15.60;99.90
11055;DHT22;5580;50.106;8.702;2022-10-17T07:30:15;15.60;99.90
11055;DHT22;5580;50.106;8.702;2022-10-17T07:32:42;15.70;99.90
11055;DHT22;5580;50.106;8.702;2022-10-17T07:35:08;15.70;99.90
11055;DHT22;5580;50.106;8.702;2022-10-17T07:37:34;15.80;99.90
11055;DHT22;5580;50.106;8.702;2022-10-17T07:39:59;15.80;99.90
11055;DHT22;5580;50.106;8.702;2022-10-17T07:42:25;15.80;99.90
11055;DHT22;5580;50.106;8.702;2022-10-17T07:44:53;15.80;99.90
11055;DHT22;5580;50.106;8.702;2022-10-17T07:47:18;15.90;99.90
11055;DHT22;5580;50.106;8.702;2022-10-17T07:49:44;15.90;99.90
11055;DHT22;5580;50.106;8.702;2022-10-17T07:52:11;15.90;99.90
11055;DHT22;5580;50.106;8.702;2022-10-17T07:54:37;16.00;99.90
11055;DHT22;5580;50.106;8.702;2022-10-17T07:57:02;16.00;99.90
11055;DHT22;5580;50.106;8.702;2022-10-17T07:59:28;16.10;99.90
11055;DHT22;5580;50.106;8.702;2022-10-17T08:01:56;16.10;99.90
11055;DHT22;5580;50.106;8.702;2022-10-17T08:04:22;16.20;99.90
11055;DHT22;5580;50.106;8.702;2022-10-17T08:06:48;16.20;99.90
11055;DHT22;5580;50.106;8.702;2022-10-17T08:09:14;16.30;99.90
11055;DHT22;5580;50.106;8.702;2022-10-17T08:11:40;16.30;99.90
11055;DHT22;5580;50.106;8.702;2022-10-17T08:14:09;16.40;99.90
11055;DHT22;5580;50.106;8.702;2022-10-17T08:16:35;16.40;99.90
11055;DHT22;5580;50.106;8.702;2022-10-17T08:19:01;16.50;99.90
11055;DHT22;5580;50.106;8.702;2022-10-17T08:21:26;16.50;99.90
11055;DHT22;5580;50.106;8.702;2022-10-17T08:23:52;16.60;99.90
11055;DHT22;5580;50.106;8.702;2022-10-17T08:26:18;16.60;99.90
11055;DHT22;5580;50.106;8.702;2022-10-17T08:28:45;16.60;99.90
11055;DHT22;5580;50.106;8.702;2022-10-17T08:31:13;16.70;99.90
11055;DHT22;5580;50.106;8.702;2022-10-17T08:33:40;16.70;99.90
11055;DHT22;5580;50.106;8.702;2022-10-17T08:36:07;16.80;99.90
11055;DHT22;5580;50.106;8.702;2022-10-17T08:38:34;16.80;99.90
11055;DHT22;5580;50.106;8.702;2022-10-17T08:41:04;16.90;99.90
11055;DHT22;5580;50.106;8.702;2022-10-17T08:46:35;16.90;99.90
11055;DHT22;5580;50.106;8.702;2022-10-17T08:49:06;17.00;99.90
11055;DHT22;5580;50.106;8.702;2022-10-17T08:51:41;17.00;99.90
11055;DHT22;5580;50.106;8.702;2022-10-17T08:54:23;17.10;99.90
11055;DHT22;5580;50.106;8.702;2022-10-17T08:56:52;17.10;99.90
11055;DHT22;5580;50.106;8.702;2022-10-17T08:59:24;17.20;99.90
11055;DHT22;5580;50.106;8.702;2022-10-17T09:13:18;17.40;99.90
11055;DHT22;5580;50.106;8.702;2022-10-17T09:18:31;17.50;99.90
11055;DHT22;5580;50.106;8.702;2022-10-17T09:21:04;17.60;99.90
11055;DHT22;5580;50.106;8.702;2022-10-17T09:23:44;17.60;99.90
11055;DHT22;5580;50.106;8.702;2022-10-17T09:26:11;17.60;99.90
11055;DHT22;5580;50.106;8.702;2022-10-17T09:28:40;17.70;99.90
11055;DHT22;5580;50.106;8.702;2022-10-17T09:31:17;17.70;99.90
11055;DHT22;5580;50.106;8.702;2022-10-17T09:33:45;17.70;99.90
11055;DHT22;5580;50.106;8.702;2022-10-17T09:36:15;17.80;99.90
11055;DHT22;5580;50.106;8.702;2022-10-17T09:38:44;17.90;99.90
11055;DHT22;5580;50.106;8.702;2022-10-17T09:41:21;17.90;99.90
11055;DHT22;5580;50.106;8.702;2022-10-17T09:43:47;18.00;99.90
11055;DHT22;5580;50.106;8.702;2022-10-17T09:46:36;18.10;99.90
11055;DHT22;5580;50.106;8.702;2022-10-17T09:49:28;18.10;99.90
11055;DHT22;5580;50.106;8.702;2022-10-17T09:51:55;18.20;99.90
11055;DHT22;5580;50.106;8.702;2022-10-17T09:54:25;18.20;99.90
11055;DHT22;5580;50.106;8.702;2022-10-17T09:57:04;18.30;99.90
11055;DHT22;5580;50.106;8.702;2022-10-17T09:59:48;18.40;99.90
11055;DHT22;5580;50.106;8.702;2022-10-17T10:02:22;18.40;99.90
11055;DHT22;5580;50.106;8.702;2022-10-17T10:07:17;18.50;99.90
11055;DHT22;5580;50.106;8.702;2022-10-17T10:09:46;18.50;99.90
11055;DHT22;5580;50.106;8.702;2022-10-17T10:12:32;18.60;99.90
11055;DHT22;5580;50.106;8.702;2022-10-17T10:14:58;18.70;99.90
11055;DHT22;5580;50.106;8.702;2022-10-17T10:17:28;18.70;99.90
11055;DHT22;5580;50.106;8.702;2022-10-17T10:19:57;18.80;99.90
11055;DHT22;5580;50.106;8.702;2022-10-17T10:22:23;18.90;99.90
11055;DHT22;5580;50.106;8.702;2022-10-17T10:25:16;19.00;99.90
11055;DHT22;5580;50.106;8.702;2022-10-17T10:27:43;19.10;99.90
11055;DHT22;5580;50.106;8.702;2022-10-17T10:30:18;19.10;99.90
11055;DHT22;5580;50.106;8.702;2022-10-17T10:32:46;19.20;99.90
11055;DHT22;5580;50.106;8.702;2022-10-17T10:35:20;19.30;99.90
11055;DHT22;5580;50.106;8.702;2022-10-17T10:37:52;19.30;99.90
11055;DHT22;5580;50.106;8.702;2022-10-17T10:40:19;19.30;99.90
11055;DHT22;5580;50.106;8.702;2022-10-17T10:42:47;19.30;99.90
11055;DHT22;5580;50.106;8.702;2022-10-17T10:47:58;19.40;99.90
11055;DHT22;5580;50.106;8.702;2022-10-17T10:50:38;19.40;99.90
11055;DHT22;5580;50.106;8.702;2022-10-17T11:01:15;19.50;99.90
11055;DHT22;5580;50.106;8.702;2022-10-17T11:03:52;19.50;99.90
11055;DHT22;5580;50.106;8.702;2022-10-17T11:06:23;19.60;99.90
11055;DHT22;5580;50.106;8.702;2022-10-17T11:09:05;19.60;99.90
11055;DHT22;5580;50.106;8.702;2022-10-17T11:11:46;19.70;99.90
11055;DHT22;5580;50.106;8.702;2022-10-17T11:14:19;19.80;99.90
11055;DHT22;5580;50.106;8.702;2022-10-17T11:16:54;19.80;99.90
11055;DHT22;5580;50.106;8.702;2022-10-17T11:19:33;19.80;99.90
11055;DHT22;5580;50.106;8.702;2022-10-17T11:24:41;19.90;99.90
11055;DHT22;5580;50.106;8.702;2022-10-17T11:27:07;19.90;99.90
11055;DHT22;5580;50.106;8.702;2022-10-17T11:29:42;20.00;99.90
11055;DHT22;5580;50.106;8.702;2022-10-17T11:32:15;20.00;99.90
11055;DHT22;5580;50.106;8.702;2022-10-17T11:34:46;20.10;99.90
11055;DHT22;5580;50.106;8.702;2022-10-17T11:37:20;20.10;99.90
11055;DHT22;5580;50.106;8.702;2022-10-17T11:39:50;20.10;99.90
11055;DHT22;5580;50.106;8.702;2022-10-17T11:42:31;20.20;99.90
11055;DHT22;5580;50.106;8.702;2022-10-17T11:45:02;20.20;99.90
11055;DHT22;5580;50.106;8.702;2022-10-17T11:47:43;20.20;99.90
11055;DHT22;5580;50.106;8.702;2022-10-17T11:50:23;20.30;99.90
11055;DHT22;5580;50.106;8.702;2022-10-17T11:52:56;20.30;99.90
11055;DHT22;5580;50.106;8.702;2022-10-17T11:55:25;20.30;99.90
11055;DHT22;5580;50.106;8.702;2022-10-17T12:08:51;20.40;99.90
11055;DHT22;5580;50.106;8.702;2022-10-17T12:11:41;20.40;99.90
11055;DHT22;5580;50.106;8.702;2022-10-17T12:16:57;20.50;99.90
11055;DHT22;5580;50.106;8.702;2022-10-17T12:19:25;20.40;99.90
11055;DHT22;5580;50.106;8.702;2022-10-17T12:27:36;20.60;99.90
11055;DHT22;5580;50.106;8.702;2022-10-17T12:30:18;20.60;99.90
11055;DHT22;5580;50.106;8.702;2022-10-17T12:33:13;20.60;99.90
11055;DHT22;5580;50.106;8.702;2022-10-17T12:35:43;20.60;99.90
11055;DHT22;5580;50.106;8.702;2022-10-17T12:53:56;20.90;99.90
11055;DHT22;5580;50.106;8.702;2022-10-17T12:56:36;20.90;99.90
11055;DHT22;5580;50.106;8.702;2022-10-17T12:59:23;21.00;99.90
11055;DHT22;5580;50.106;8.702;2022-10-17T13:01:52;21.00;99.90
11055;DHT22;5580;50.106;8.702;2022-10-17T13:04:19;21.00;99.90
11055;DHT22;5580;50.106;8.702;2022-10-17T13:06:51;21.10;99.90
11055;DHT22;5580;50.106;8.702;2022-10-17T13:09:37;21.10;99.90
11055;DHT22;5580;50.106;8.702;2022-10-17T13:12:12;21.20;99.90
11055;DHT22;5580;50.106;8.702;2022-10-17T13:14:40;21.20;99.90
11055;DHT22;5580;50.106;8.702;2022-10-17T13:17:23;21.20;99.90
11055;DHT22;5580;50.106;8.702;2022-10-17T13:19:49;21.20;99.90
11055;DHT22;5580;50.106;8.702;2022-10-17T13:24:43;21.20;99.90
11055;DHT22;5580;50.106;8.702;2022-10-17T13:27:31;21.30;99.90
11055;DHT22;5580;50.106;8.702;2022-10-17T13:29:58;21.30;99.90
11055;DHT22;5580;50.106;8.702;2022-10-17T13:32:33;21.30;99.90
11055;DHT22;5580;50.106;8.702;2022-10-17T13:35:09;21.30;99.90
11055;DHT22;5580;50.106;8.702;2022-10-17T13:37:35;21.30;99.90
11055;DHT22;5580;50.106;8.702;2022-10-17T13:40:02;21.30;99.90
11055;DHT22;5580;50.106;8.702;2022-10-17T13:42:30;21.30;99.90
11055;DHT22;5580;50.106;8.702;2022-10-17T13:45:00;21.30;99.90
11055;DHT22;5580;50.106;8.702;2022-10-17T13:47:35;21.40;99.90
11055;DHT22;5580;50.106;8.702;2022-10-17T13:50:02;21.50;99.90
11055;DHT22;5580;50.106;8.702;2022-10-17T13:52:29;21.40;99.90
11055;DHT22;5580;50.106;8.702;2022-10-17T13:55:05;21.40;99.90
11055;DHT22;5580;50.106;8.702;2022-10-17T13:57:30;21.40;99.90
11055;DHT22;5580;50.106;8.702;2022-10-17T14:00:02;21.40;99.90
11055;DHT22;5580;50.106;8.702;2022-10-17T14:02:33;21.40;99.90
11055;DHT22;5580;50.106;8.702;2022-10-17T14:05:01;21.40;99.90
11055;DHT22;5580;50.106;8.702;2022-10-17T14:07:38;21.50;99.90
11055;DHT22;5580;50.106;8.702;2022-10-17T14:10:06;21.60;99.90
11055;DHT22;5580;50.106;8.702;2022-10-17T14:12:42;21.60;99.90
11055;DHT22;5580;50.106;8.702;2022-10-17T14:15:13;21.60;99.90
11055;DHT22;5580;50.106;8.702;2022-10-17T14:17:39;21.60;99.90
11055;DHT22;5580;50.106;8.702;2022-10-17T14:20:05;21.60;99.90
11055;DHT22;5580;50.106;8.702;2022-10-17T14:22:35;21.60;99.90
11055;DHT22;5580;50.106;8.702;2022-10-17T14:25:02;21.60;99.90
11055;DHT22;5580;50.106;8.702;2022-10-17T14:27:37;21.60;99.90
11055;DHT22;5580;50.106;8.702;2022-10-17T14:32:58;21.60;99.90
11055;DHT22;5580;50.106;8.702;2022-10-17T14:35:25;21.50;99.90
11055;DHT22;5580;50.106;8.702;2022-10-17T14:37:52;21.60;99.90
11055;DHT22;5580;50.106;8.702;2022-10-17T14:40:23;21.60;99.90
11055;DHT22;5580;50.106;8.702;2022-10-17T14:42:50;21.60;99.90
11055;DHT22;5580;50.106;8.702;2022-10-17T14:47:51;21.60;99.90
11055;DHT22;5580;50.106;8.702;2022-10-17T14:50:26;21.60;99.90
11055;DHT22;5580;50.106;8.702;2022-10-17T14:53:18;21.60;99.90
11055;DHT22;5580;50.106;8.702;2022-10-17T14:56:22;21.60;99.90
11055;DHT22;5580;50.106;8.702;2022-10-17T14:58:47;21.60;99.90
11055;DHT22;5580;50.106;8.702;2022-10-17T15:01:13;21.60;99.90
11055;DHT22;5580;50.106;8.702;2022-10-17T15:03:39;21.60;99.90
11055;DHT22;5580;50.106;8.702;2022-10-17T15:06:25;21.60;99.90
11055;DHT22;5580;50.106;8.702;2022-10-17T15:08:51;21.60;99.90
11055;DHT22;5580;50.106;8.702;2022-10-17T15:11:16;21.60;99.90
11055;DHT22;5580;50.106;8.702;2022-10-17T15:13:42;21.60;99.90
11055;DHT22;5580;50.106;8.702;2022-10-17T15:16:25;21.60;99.90
11055;DHT22;5580;50.106;8.702;2022-10-17T15:18:52;21.60;99.90
11055;DHT22;5580;50.106;8.702;2022-10-17T15:21:23;21.60;99.90
11055;DHT22;5580;50.106;8.702;2022-10-17T15:23:49;21.60;99.90
11055;DHT22;5580;50.106;8.702;2022-10-17T15:28:40;21.60;99.90
11055;DHT22;5580;50.106;8.702;2022-10-17T15:31:09;21.60;99.90
11055;DHT22;5580;50.106;8.702;2022-10-17T15:33:35;21.60;99.90
11055;DHT22;5580;50.106;8.702;2022-10-17T15:36:00;21.60;99.90
11055;DHT22;5580;50.106;8.702;2022-10-17T15:38:26;21.60;99.90
11055;DHT22;5580;50.106;8.702;2022-10-17T15:40:51;21.60;99.90
11055;DHT22;5580;50.106;8.702;2022-10-17T15:43:17;21.60;99.90
11055;DHT22;5580;50.106;8.702;2022-10-17T15:45:43;21.60;99.90
11055;DHT22;5580;50.106;8.702;2022-10-17T15:48:17;21.60;99.90
11055;DHT22;5580;50.106;8.702;2022-10-17T15:50:43;21.60;99.90
11055;DHT22;5580;50.106;8.702;2022-10-17T15:53:13;21.60;99.90
11055;DHT22;5580;50.106;8.702;2022-10-17T15:55:39;21.60;99.90
11055;DHT22;5580;50.106;8.702;2022-10-17T15:58:05;21.60;99.90
11055;DHT22;5580;50.106;8.702;2022-10-17T16:00:30;21.50;99.90
11055;DHT22;5580;50.106;8.702;2022-10-17T16:02:56;21.60;99.90
11055;DHT22;5580;50.106;8.702;2022-10-17T16:05:24;21.50;99.90
11055;DHT22;5580;50.106;8.702;2022-10-17T16:07:54;21.50;99.90
11055;DHT22;5580;50.106;8.702;2022-10-17T16:10:20;21.50;99.90
11055;DHT22;5580;50.106;8.702;2022-10-17T16:12:47;21.50;99.90
11055;DHT22;5580;50.106;8.702;2022-10-17T16:15:21;21.50;99.90
11055;DHT22;5580;50.106;8.702;2022-10-17T16:17:47;21.50;99.90
11055;DHT22;5580;50.106;8.702;2022-10-17T16:20:13;21.50;99.90
11055;DHT22;5580;50.106;8.702;2022-10-17T16:22:41;21.50;99.90
11055;DHT22;5580;50.106;8.702;2022-10-17T16:27:45;21.40;99.90
11055;DHT22;5580;50.106;8.702;2022-10-17T16:30:11;21.40;99.90
11055;DHT22;5580;50.106;8.702;2022-10-17T16:32:37;21.40;99.90
11055;DHT22;5580;50.106;8.702;2022-10-17T16:35:03;21.40;99.90
11055;DHT22;5580;50.106;8.702;2022-10-17T16:37:29;21.40;99.90
11055;DHT22;5580;50.106;8.702;2022-10-17T16:39:54;21.30;99.90
11055;DHT22;5580;50.106;8.702;2022-10-17T16:42:20;21.30;99.90
11055;DHT22;5580;50.106;8.702;2022-10-17T16:44:47;21.30;99.90
11055;DHT22;5580;50.106;8.702;2022-10-17T16:47:13;21.20;99.90
11055;DHT22;5580;50.106;8.702;2022-10-17T16:49:38;21.30;99.90
11055;DHT22;5580;50.106;8.702;2022-10-17T16:52:04;21.20;99.90
11055;DHT22;5580;50.106;8.702;2022-10-17T16:54:30;21.20;99.90
11055;DHT22;5580;50.106;8.702;2022-10-17T16:56:56;21.20;99.90
11055;DHT22;5580;50.106;8.702;2022-10-17T16:59:22;21.20;99.90
11055;DHT22;5580;50.106;8.702;2022-10-17T17:01:48;21.30;99.90
11055;DHT22;5580;50.106;8.702;2022-10-17T17:04:14;21.20;99.90
11055;DHT22;5580;50.106;8.702;2022-10-17T17:06:40;21.20;99.90
11055;DHT22;5580;50.106;8.702;2022-10-17T17:09:05;21.30;99.90
11055;DHT22;5580;50.106;8.702;2022-10-17T17:11:31;21.20;99.90
11055;DHT22;5580;50.106;8.702;2022-10-17T17:13:57;21.20;99.90
11055;DHT22;5580;50.106;8.702;2022-10-17T17:16:25;21.20;99.90
11055;DHT22;5580;50.106;8.702;2022-10-17T17:18:55;21.20;99.90
11055;DHT22;5580;50.106;8.702;2022-10-17T17:21:22;21.20;99.90
11055;DHT22;5580;50.106;8.702;2022-10-17T17:23:47;21.10;99.90
11055;DHT22;5580;50.106;8.702;2022-10-17T17:26:16;21.20;99.90
11055;DHT22;5580;50.106;8.702;2022-10-17T17:28:42;21.20;99.90
11055;DHT22;5580;50.106;8.702;2022-10-17T17:31:10;21.20;99.90
11055;DHT22;5580;50.106;8.702;2022-10-17T17:33:37;21.20;99.90
11055;DHT22;5580;50.106;8.702;2022-10-17T17:36:03;21.10;99.90
11055;DHT22;5580;50.106;8.702;2022-10-17T17:38:30;21.10;99.90
11055;DHT22;5580;50.106;8.702;2022-10-17T17:40:56;21.10;99.90
11055;DHT22;5580;50.106;8.702;2022-10-17T17:43:21;21.10;99.90
11055;DHT22;5580;50.106;8.702;2022-10-17T17:45:47;21.10;99.90